Saturday, November 18, 2017, 11:19 PM GMT
Back to Local

CWJB, Ste Foy CS , Que.

Location: , , Canada Lat: 47.3
Local Time: 11:19 PM GMT (23:19 GMT) Lon: -71.267
Time Zone: GMT Elev: 298 ft

Show me the last for .
Show Coded

Time T Td Feel RH Dir Speed Gust Alt SLP Vis Weather Sky Remarks
2017-11-18 23:00 30 23 22 73 60° 9 - - - 0 None
2017-11-18 22:00 29 24 21 83 60° 8 - - - 0 None
2017-11-18 21:00 27 19 17 73 70° 9 - - - 0 None
2017-11-18 20:00 26 19 17 74 40° 9 - - - 0 None
2017-11-18 19:00 25 18 21 72 40° 3 - - - 0 None
2017-11-18 18:00 26 18 20 70 70° 5 - - - 0 None
2017-11-18 17:00 23 18 18 80 80° 3 - - - 0 None
2017-11-18 16:00 22 16 - 79 20° 2 - - - 0 None
2017-11-18 15:00 21 16 - 81 190° 1 - - - 0 None
2017-11-18 14:00 19 15 - 84 10° 2 - - - 0 None
2017-11-18 13:00 19 14 - 83 230° 1 - - - 0 None
2017-11-18 12:00 17 13 - 83 210° 1 - - - 0 None
2017-11-18 11:00 19 12 12 75 220° 5 - - - 0 None
2017-11-18 10:00 17 12 7 82 220° 7 - - - 0 None
2017-11-18 09:00 17 13 7 82 220° 7 - - - 0 None
2017-11-18 08:00 17 13 8 81 220° 7 - - - 0 None
2017-11-18 07:00 18 13 8 79 220° 7 - - - 0 None
2017-11-18 06:00 19 13 14 75 240° 3 - - - 0 None
2017-11-18 05:00 21 14 11 73 220° 8 - - - 0 None
2017-11-18 04:00 22 14 17 72 220° 3 - - - 0 None
2017-11-18 03:00 23 15 8 71 340° 9 18 - - 0 Peak wind: 20 mph (18 kts) from 350° at 31 min
2017-11-18 02:00 24 16 17 70 330° 6 - - - 0 None
2017-11-18 01:00 25 17 21 69 200° 3 - - - 0 None
2017-11-18 00:00 25 17 21 69 320° 3 - - - 0 None

Support USWX by starting your Amazon purchase here.